THY9634 LYBE-LTBJ
Flight info
| Callsign | THY9634 |
|---|---|
| Flight time | N/A |
| Altitude | 35000 |
| Route | TPL DCT RAXAD DCT RUGAS UN128 RIKSO |
| Aircraft | B738/M-SDE2E3FGHIRWXY/LB1 |
Departure
| Time | 2026-05-03 20:58 |
|---|---|
| Airport | Belgrade Nikola Tesla Airport (LYBE) |
Arrival
| Time | N/A |
|---|---|
| Airport | Adnan Menderes International Airport (LTBJ) |
| Time | Latitude | Longitude | Altitude | Speed | Heading |
|---|---|---|---|---|---|
| 2026-05-03 20:31 | 44.81932 | 20.29281 | 326 ft | 0 kts | 301° |
| 2026-05-03 20:49 | 44.81924 | 20.29299 | 327 ft | 2 kts | 301° |
| 2026-05-03 20:49 | 44.81916 | 20.29317 | 327 ft | 2 kts | 301° |
| 2026-05-03 20:49 | 44.81906 | 20.29332 | 327 ft | 2 kts | 335° |
| 2026-05-03 20:50 | 44.81892 | 20.29337 | 327 ft | 2 kts | 4° |
| 2026-05-03 20:50 | 44.81879 | 20.29333 | 327 ft | 0 kts | 28° |
| 2026-05-03 20:50 | 44.81874 | 20.29328 | 327 ft | 1 kts | 32° |
| 2026-05-03 20:50 | 44.81873 | 20.29327 | 327 ft | 0 kts | 32° |
| 2026-05-03 20:53 | 44.81890 | 20.29341 | 327 ft | 6 kts | 31° |
| 2026-05-03 20:53 | 44.81945 | 20.29389 | 327 ft | 11 kts | 31° |
| 2026-05-03 20:53 | 44.82010 | 20.29443 | 327 ft | 10 kts | 31° |
| 2026-05-03 20:53 | 44.82066 | 20.29492 | 328 ft | 8 kts | 32° |
| 2026-05-03 20:54 | 44.82116 | 20.29526 | 328 ft | 7 kts | 7° |
| 2026-05-03 20:54 | 44.82199 | 20.29403 | 327 ft | 10 kts | 302° |
| 2026-05-03 20:54 | 44.82242 | 20.29302 | 327 ft | 12 kts | 300° |
| 2026-05-03 20:55 | 44.82290 | 20.29188 | 326 ft | 13 kts | 304° |
| 2026-05-03 20:55 | 44.82342 | 20.29081 | 326 ft | 12 kts | 302° |
| 2026-05-03 20:55 | 44.82387 | 20.28976 | 325 ft | 12 kts | 301° |
| 2026-05-03 20:55 | 44.82433 | 20.28881 | 325 ft | 11 kts | 314° |
| 2026-05-03 20:56 | 44.82498 | 20.28855 | 324 ft | 9 kts | 6° |
| 2026-05-03 20:56 | 44.82549 | 20.28892 | 324 ft | 7 kts | 42° |
| 2026-05-03 20:56 | 44.82592 | 20.28956 | 324 ft | 10 kts | 54° |
| 2026-05-03 20:56 | 44.82614 | 20.29048 | 325 ft | 9 kts | 79° |
| 2026-05-03 20:57 | 44.82623 | 20.29134 | 325 ft | 6 kts | 91° |
| 2026-05-03 20:57 | 44.82607 | 20.29191 | 325 ft | 5 kts | 121° |
| 2026-05-03 20:57 | 44.82507 | 20.29413 | 327 ft | 65 kts | 123° |
| 2026-05-03 20:57 | 44.82119 | 20.30278 | 333 ft | 141 kts | 123° |
| 2026-05-03 20:58 | 44.81513 | 20.31652 | 617 ft | 176 kts | 120° |
| 2026-05-03 20:58 | 44.80854 | 20.33105 | 1390 ft | 186 kts | 126° |
| 2026-05-03 20:58 | 44.80103 | 20.34638 | 2144 ft | 193 kts | 122° |
| 2026-05-03 20:58 | 44.79389 | 20.36268 | 2579 ft | 210 kts | 120° |
| 2026-05-03 20:59 | 44.78569 | 20.38079 | 2886 ft | 218 kts | 120° |
| 2026-05-03 20:59 | 44.77808 | 20.39900 | 2837 ft | 212 kts | 116° |
| 2026-05-03 20:59 | 44.77122 | 20.41966 | 1648 ft | 254 kts | 110° |
| 2026-05-03 20:59 | 44.76430 | 20.44368 | 2257 ft | 267 kts | 116° |
| 2026-05-03 21:00 | 44.75513 | 20.46421 | 3210 ft | 249 kts | 124° |
| 2026-05-03 21:00 | 44.74792 | 20.47731 | 3639 ft | 253 kts | 126° |
| 2026-05-03 21:00 | 44.73357 | 20.50331 | 4233 ft | 259 kts | 123° |
| 2026-05-03 21:00 | 44.72331 | 20.52325 | 4554 ft | 246 kts | 122° |
| 2026-05-03 21:01 | 44.71373 | 20.54296 | 4608 ft | 248 kts | 122° |
| 2026-05-03 21:01 | 44.70410 | 20.56365 | 4666 ft | 259 kts | 118° |
| 2026-05-03 21:01 | 44.69487 | 20.58546 | 4670 ft | 257 kts | 118° |
| 2026-05-03 21:01 | 44.68539 | 20.60657 | 4682 ft | 256 kts | 119° |
| 2026-05-03 21:02 | 44.67583 | 20.62780 | 4685 ft | 257 kts | 119° |
| 2026-05-03 21:02 | 44.66497 | 20.64806 | 4843 ft | 269 kts | 133° |
| 2026-05-03 21:02 | 44.64961 | 20.66308 | 5519 ft | 272 kts | 150° |
| 2026-05-03 21:02 | 44.63260 | 20.67248 | 6570 ft | 262 kts | 159° |
| 2026-05-03 21:03 | 44.61470 | 20.67808 | 7460 ft | 267 kts | 167° |
| 2026-05-03 21:03 | 44.59598 | 20.68159 | 8030 ft | 282 kts | 171° |
| 2026-05-03 21:03 | 44.57623 | 20.68287 | 8693 ft | 292 kts | 177° |
| 2026-05-03 21:03 | 44.55585 | 20.68108 | 9219 ft | 301 kts | 187° |
| 2026-05-03 21:04 | 44.53522 | 20.67488 | 10033 ft | 305 kts | 191° |
| 2026-05-03 21:04 | 44.51435 | 20.66953 | 10616 ft | 316 kts | 184° |
| 2026-05-03 21:04 | 44.49189 | 20.66821 | 11198 ft | 327 kts | 175° |
| 2026-05-03 21:04 | 44.46881 | 20.67064 | 11631 ft | 342 kts | 170° |
| 2026-05-03 21:05 | 44.44470 | 20.67544 | 12043 ft | 358 kts | 168° |
| 2026-05-03 21:05 | 44.41980 | 20.68132 | 12508 ft | 372 kts | 167° |
| 2026-05-03 21:05 | 44.39383 | 20.68761 | 13202 ft | 379 kts | 167° |
| 2026-05-03 21:05 | 44.36773 | 20.69380 | 13910 ft | 385 kts | 167° |
| 2026-05-03 21:06 | 44.34129 | 20.69993 | 14599 ft | 391 kts | 167° |
| 2026-05-03 21:06 | 44.31413 | 20.70612 | 15328 ft | 396 kts | 167° |
| 2026-05-03 21:06 | 44.28690 | 20.71227 | 16026 ft | 401 kts | 167° |
| 2026-05-03 21:06 | 44.25915 | 20.71851 | 16675 ft | 407 kts | 167° |
| 2026-05-03 21:07 | 44.23133 | 20.72474 | 17289 ft | 412 kts | 167° |
| 2026-05-03 21:07 | 44.20286 | 20.73110 | 18000 ft | 416 kts | 167° |
| 2026-05-03 21:07 | 44.17434 | 20.73819 | 18653 ft | 419 kts | 164° |
| 2026-05-03 21:07 | 44.14631 | 20.74851 | 19231 ft | 421 kts | 156° |
| 2026-05-03 21:08 | 44.11923 | 20.76452 | 19917 ft | 420 kts | 148° |
| 2026-05-03 21:08 | 44.09360 | 20.78376 | 20493 ft | 423 kts | 145° |
| 2026-05-03 21:08 | 44.06855 | 20.80452 | 21119 ft | 425 kts | 143° |
| 2026-05-03 21:08 | 44.04331 | 20.82633 | 21642 ft | 431 kts | 142° |
| 2026-05-03 21:09 | 44.01776 | 20.84861 | 22224 ft | 435 kts | 142° |
| 2026-05-03 21:09 | 43.99192 | 20.87100 | 22833 ft | 438 kts | 142° |
| 2026-05-03 21:09 | 43.96632 | 20.89298 | 23400 ft | 442 kts | 142° |
| 2026-05-03 21:09 | 43.93985 | 20.91552 | 23891 ft | 447 kts | 142° |
| 2026-05-03 21:10 | 43.91341 | 20.93792 | 24456 ft | 450 kts | 143° |
| 2026-05-03 21:10 | 43.88642 | 20.96066 | 24930 ft | 455 kts | 143° |
| 2026-05-03 21:10 | 43.85945 | 20.98328 | 25417 ft | 459 kts | 143° |
| 2026-05-03 21:10 | 43.83221 | 21.00606 | 25970 ft | 461 kts | 143° |
| 2026-05-03 21:11 | 43.80422 | 21.02944 | 26321 ft | 467 kts | 143° |
| 2026-05-03 21:11 | 43.77672 | 21.05234 | 26892 ft | 468 kts | 143° |
| 2026-05-03 21:11 | 43.74848 | 21.07589 | 27250 ft | 473 kts | 143° |
| 2026-05-03 21:11 | 43.72051 | 21.09918 | 27726 ft | 476 kts | 143° |
| 2026-05-03 21:12 | 43.69196 | 21.12292 | 28088 ft | 481 kts | 143° |
| 2026-05-03 21:12 | 43.66349 | 21.14655 | 28512 ft | 483 kts | 144° |
| 2026-05-03 21:12 | 43.63451 | 21.17058 | 28905 ft | 487 kts | 143° |
| 2026-05-03 21:12 | 43.60548 | 21.19459 | 29501 ft | 485 kts | 144° |
| 2026-05-03 21:13 | 43.57671 | 21.21835 | 30109 ft | 483 kts | 143° |
| 2026-05-03 21:13 | 43.54800 | 21.24202 | 30593 ft | 483 kts | 144° |
| 2026-05-03 21:13 | 43.51905 | 21.26591 | 30996 ft | 484 kts | 143° |
| 2026-05-03 21:13 | 43.49044 | 21.28953 | 31445 ft | 484 kts | 143° |
| 2026-05-03 21:14 | 43.46161 | 21.31329 | 31982 ft | 482 kts | 143° |
| 2026-05-03 21:14 | 43.43310 | 21.33676 | 32426 ft | 481 kts | 143° |
| 2026-05-03 21:14 | 43.40449 | 21.36032 | 32795 ft | 482 kts | 143° |
| 2026-05-03 21:14 | 43.37549 | 21.38415 | 33250 ft | 480 kts | 143° |
| 2026-05-03 21:15 | 43.34714 | 21.40739 | 33655 ft | 479 kts | 143° |
| 2026-05-03 21:15 | 43.31797 | 21.43128 | 33998 ft | 480 kts | 143° |
| 2026-05-03 21:15 | 43.28916 | 21.45486 | 34346 ft | 481 kts | 143° |
| 2026-05-03 21:15 | 43.26014 | 21.47859 | 34669 ft | 480 kts | 143° |
| 2026-05-03 21:16 | 43.23141 | 21.50206 | 35005 ft | 479 kts | 143° |
| 2026-05-03 21:16 | 43.20275 | 21.52545 | 35179 ft | 481 kts | 143° |
| 2026-05-03 21:16 | 43.14484 | 21.57268 | 35197 ft | 479 kts | 143° |
| 2026-05-03 21:17 | 43.09745 | 21.61116 | 35193 ft | 477 kts | 143° |
| 2026-05-03 21:17 | 43.03024 | 21.66565 | 35192 ft | 480 kts | 144° |
| 2026-05-03 21:18 | 42.97264 | 21.71232 | 35193 ft | 479 kts | 143° |
| 2026-05-03 21:18 | 42.91551 | 21.75857 | 35209 ft | 480 kts | 144° |
| 2026-05-03 21:19 | 42.85809 | 21.80489 | 35188 ft | 479 kts | 143° |
| 2026-05-03 21:19 | 42.80074 | 21.85100 | 35188 ft | 480 kts | 143° |
| 2026-05-03 21:20 | 42.74292 | 21.89743 | 35179 ft | 481 kts | 143° |
| 2026-05-03 21:20 | 42.68550 | 21.94347 | 35148 ft | 481 kts | 143° |
| 2026-05-03 21:21 | 42.62801 | 21.98941 | 35175 ft | 482 kts | 143° |
| 2026-05-03 21:21 | 42.57058 | 22.03506 | 35145 ft | 481 kts | 143° |
| 2026-05-03 21:22 | 42.51288 | 22.08079 | 35163 ft | 482 kts | 143° |
| 2026-05-03 21:22 | 42.45494 | 22.12683 | 35161 ft | 481 kts | 143° |
| 2026-05-03 21:23 | 42.42641 | 22.14956 | 35349 ft | 483 kts | 143° |
| 2026-05-03 21:23 | 42.39722 | 22.17276 | 35131 ft | 485 kts | 143° |
| 2026-05-03 21:23 | 42.33960 | 22.21820 | 35353 ft | 478 kts | 143° |
| 2026-05-03 21:24 | 42.31072 | 22.24077 | 35213 ft | 483 kts | 145° |
| 2026-05-03 21:24 | 42.28085 | 22.26146 | 35169 ft | 484 kts | 149° |